createdAt,value
2022-12-06T00:02:13.397Z,10.50
2022-12-06T00:04:40.343Z,10.50
2022-12-06T00:07:07.247Z,10.50
2022-12-06T00:09:34.074Z,10.50
2022-12-06T00:12:00.947Z,10.50
2022-12-06T00:14:28.189Z,10.50
2022-12-06T00:16:55.209Z,10.50
2022-12-06T00:19:23.747Z,10.50
2022-12-06T00:21:51.014Z,10.50
2022-12-06T00:24:20.750Z,10.50
2022-12-06T00:26:49.003Z,10.50
2022-12-06T00:29:18.810Z,10.50
2022-12-06T00:31:46.643Z,10.50
2022-12-06T00:34:13.677Z,10.50
2022-12-06T00:36:41.699Z,10.50
2022-12-06T00:39:13.968Z,10.50
2022-12-06T00:41:41.590Z,10.50
2022-12-06T00:44:09.006Z,10.50
2022-12-06T00:46:36.259Z,10.50
2022-12-06T00:49:05.534Z,10.50
2022-12-06T00:51:33.979Z,10.50
2022-12-06T00:54:00.922Z,10.50
2022-12-06T00:56:28.961Z,10.50
2022-12-06T00:58:56.180Z,10.50
2022-12-06T01:01:28.715Z,10.50
2022-12-06T01:04:01.106Z,10.50
2022-12-06T01:06:30.865Z,10.50
2022-12-06T01:09:00.377Z,10.50
2022-12-06T01:11:28.738Z,10.50
2022-12-06T01:13:56.307Z,10.50
2022-12-06T01:16:26.449Z,10.50
2022-12-06T01:18:56.154Z,10.50
2022-12-06T01:21:24.246Z,10.50
2022-12-06T01:23:51.688Z,10.50
2022-12-06T01:26:24.735Z,10.50
2022-12-06T01:28:52.666Z,10.50
2022-12-06T01:31:20.151Z,10.50
2022-12-06T01:33:47.128Z,10.50
2022-12-06T01:36:22.600Z,10.50
2022-12-06T01:38:54.601Z,10.50
2022-12-06T01:41:23.595Z,10.50
2022-12-06T01:43:50.933Z,10.50
2022-12-06T01:46:35.926Z,10.50
2022-12-06T01:49:11.807Z,10.50
2022-12-06T01:51:42.847Z,10.50
2022-12-06T01:54:13.608Z,10.50
2022-12-06T01:56:41.461Z,10.50
2022-12-06T01:59:09.547Z,10.50
2022-12-06T02:01:38.786Z,10.50
2022-12-06T02:04:07.033Z,10.50
2022-12-06T02:06:34.520Z,10.50
2022-12-06T02:09:04.245Z,10.50
2022-12-06T02:11:35.151Z,10.50
2022-12-06T02:14:05.829Z,10.50
2022-12-06T02:16:48.066Z,10.40
2022-12-06T02:19:33.499Z,10.50
2022-12-06T02:22:23.427Z,10.40
2022-12-06T02:25:08.932Z,10.50
2022-12-06T02:27:53.434Z,10.50
2022-12-06T02:30:54.230Z,10.40
2022-12-06T02:33:31.453Z,10.40
2022-12-06T02:36:06.018Z,10.40
2022-12-06T02:38:43.755Z,10.40
2022-12-06T02:41:18.887Z,10.40
2022-12-06T02:43:51.265Z,10.40
2022-12-06T02:46:21.239Z,10.40
2022-12-06T02:48:52.049Z,10.40
2022-12-06T02:51:21.083Z,10.40
2022-12-06T02:53:52.007Z,10.40
2022-12-06T02:56:19.902Z,10.40
2022-12-06T02:58:47.411Z,10.40
2022-12-06T03:01:18.277Z,10.40
2022-12-06T03:04:33.535Z,10.40
2022-12-06T03:07:21.981Z,10.40
2022-12-06T03:10:37.816Z,10.40
2022-12-06T03:13:17.918Z,10.40
2022-12-06T03:15:58.091Z,10.40
2022-12-06T03:18:32.369Z,10.40
2022-12-06T03:21:06.126Z,10.40
2022-12-06T03:23:37.736Z,10.30
2022-12-06T03:26:07.339Z,10.30
2022-12-06T03:28:36.593Z,10.30
2022-12-06T03:31:09.211Z,10.30
2022-12-06T03:33:42.234Z,10.30
2022-12-06T03:36:12.826Z,10.30
2022-12-06T03:38:47.218Z,10.30
2022-12-06T03:41:16.524Z,10.30
2022-12-06T03:43:43.417Z,10.30
2022-12-06T03:46:17.835Z,10.30
2022-12-06T03:49:10.755Z,10.30
2022-12-06T03:51:40.452Z,10.30
2022-12-06T03:54:08.820Z,10.30
2022-12-06T03:56:38.352Z,10.30
2022-12-06T03:59:06.545Z,10.30
2022-12-06T04:01:34.014Z,10.30
2022-12-06T04:04:01.458Z,10.30
2022-12-06T04:06:28.650Z,10.30
2022-12-06T04:09:15.921Z,10.30
2022-12-06T04:11:42.789Z,10.30
2022-12-06T04:14:09.803Z,10.30
2022-12-06T04:16:55.149Z,10.30
2022-12-06T04:19:22.109Z,10.30
2022-12-06T04:22:07.565Z,10.30
2022-12-06T04:24:34.667Z,10.30
2022-12-06T04:27:20.377Z,10.20
2022-12-06T04:30:05.769Z,10.30
2022-12-06T04:32:51.180Z,10.30
2022-12-06T04:35:36.573Z,10.30
2022-12-06T04:38:22.302Z,10.30
2022-12-06T04:40:49.138Z,10.30
2022-12-06T04:43:34.499Z,10.30
2022-12-06T04:46:01.365Z,10.30
2022-12-06T04:48:28.271Z,10.30
2022-12-06T04:50:55.039Z,10.30
2022-12-06T04:53:21.800Z,10.30
2022-12-06T04:55:49.544Z,10.30
2022-12-06T04:58:16.521Z,10.30
2022-12-06T05:00:43.813Z,10.30
2022-12-06T05:03:14.542Z,10.30
2022-12-06T05:05:42.534Z,10.30
2022-12-06T05:08:10.318Z,10.30
2022-12-06T05:10:37.536Z,10.30
2022-12-06T05:13:05.184Z,10.30
2022-12-06T05:15:32.426Z,10.30
2022-12-06T05:17:59.213Z,10.30
2022-12-06T05:20:26.060Z,10.30
2022-12-06T05:22:52.846Z,10.30
2022-12-06T05:25:19.661Z,10.30
2022-12-06T05:27:46.450Z,10.30
2022-12-06T05:30:13.582Z,10.30
2022-12-06T05:32:40.693Z,10.30
2022-12-06T05:35:08.328Z,10.30
2022-12-06T05:37:35.353Z,10.30
2022-12-06T05:40:02.639Z,10.30
2022-12-06T05:42:29.803Z,10.30
2022-12-06T05:44:56.643Z,10.30
2022-12-06T05:47:23.474Z,10.30
2022-12-06T05:49:51.204Z,10.30
2022-12-06T05:52:18.175Z,10.30
2022-12-06T05:54:45.028Z,10.30
2022-12-06T05:57:11.940Z,10.30
2022-12-06T05:59:38.798Z,10.20
2022-12-06T06:02:05.735Z,10.20
2022-12-06T06:04:32.621Z,10.20
2022-12-06T06:06:59.495Z,10.20
2022-12-06T06:09:29.072Z,10.20
2022-12-06T06:11:56.254Z,10.20
2022-12-06T06:14:23.169Z,10.20
2022-12-06T06:16:52.248Z,10.10
2022-12-06T06:19:20.418Z,10.10
2022-12-06T06:21:47.482Z,10.10
2022-12-06T06:24:14.271Z,10.10
2022-12-06T06:26:41.054Z,10.10
2022-12-06T06:29:08.020Z,10.00
2022-12-06T06:31:35.188Z,10.00
2022-12-06T06:34:02.190Z,10.10
2022-12-06T06:36:29.025Z,10.00
2022-12-06T06:38:55.855Z,10.00
2022-12-06T06:41:22.827Z,10.00
2022-12-06T06:43:49.968Z,10.00
2022-12-06T06:46:17.153Z,10.00
2022-12-06T06:48:44.110Z,10.00
2022-12-06T06:51:12.844Z,10.00
2022-12-06T06:53:39.978Z,10.00
2022-12-06T06:56:07.246Z,10.00
2022-12-06T06:58:34.171Z,10.00
2022-12-06T07:01:03.017Z,10.00
2022-12-06T07:03:30.341Z,10.00
2022-12-06T07:06:00.445Z,10.00
2022-12-06T07:08:28.597Z,10.00
2022-12-06T07:10:56.964Z,10.00
2022-12-06T07:13:25.572Z,10.00
2022-12-06T07:15:52.639Z,10.00
2022-12-06T07:18:21.893Z,10.00
2022-12-06T07:20:49.585Z,10.00
2022-12-06T07:23:16.436Z,10.00
2022-12-06T07:25:43.371Z,10.00
2022-12-06T07:28:10.281Z,10.00
2022-12-06T07:30:37.090Z,10.00
2022-12-06T07:33:04.182Z,10.00
2022-12-06T07:36:03.164Z,10.00
2022-12-06T07:38:17.949Z,10.00
2022-12-06T07:43:50.214Z,10.00
2022-12-06T07:46:17.173Z,10.00
2022-12-06T07:48:44.061Z,10.00
2022-12-06T07:51:11.144Z,10.00
2022-12-06T07:53:38.342Z,10.00
2022-12-06T07:56:08.956Z,10.00
2022-12-06T07:58:35.853Z,10.00
2022-12-06T08:01:04.430Z,10.00
2022-12-06T08:03:31.460Z,10.00
2022-12-06T08:05:58.766Z,10.00
2022-12-06T08:08:28.736Z,10.00
2022-12-06T08:10:59.346Z,10.10
2022-12-06T08:13:26.224Z,10.00
2022-12-06T08:15:53.111Z,10.00
2022-12-06T08:18:20.000Z,10.10
2022-12-06T08:20:46.896Z,10.00
2022-12-06T08:23:13.710Z,10.10
2022-12-06T08:25:40.672Z,10.00
2022-12-06T08:28:07.531Z,10.00
2022-12-06T08:30:34.516Z,10.00
2022-12-06T08:33:01.578Z,10.00
2022-12-06T08:35:28.376Z,10.00
2022-12-06T08:37:55.160Z,10.00
2022-12-06T08:40:22.051Z,10.00
2022-12-06T08:42:48.960Z,10.00
2022-12-06T08:45:15.826Z,10.00
2022-12-06T08:47:42.631Z,10.00
2022-12-06T08:50:09.743Z,9.90
2022-12-06T08:52:36.599Z,9.90
2022-12-06T08:55:03.523Z,10.00
2022-12-06T08:57:32.465Z,9.90
2022-12-06T08:59:59.522Z,9.90
2022-12-06T09:02:26.667Z,9.90
2022-12-06T09:04:53.659Z,10.00
2022-12-06T09:07:20.630Z,10.00
2022-12-06T09:09:47.511Z,10.00
2022-12-06T09:12:14.705Z,10.00
2022-12-06T09:14:41.673Z,10.00
2022-12-06T09:17:08.432Z,10.00
2022-12-06T09:19:35.339Z,10.00
2022-12-06T09:22:02.481Z,10.00
2022-12-06T09:24:29.527Z,10.00
2022-12-06T09:26:56.498Z,10.00
2022-12-06T09:29:23.656Z,10.00
2022-12-06T09:31:50.847Z,10.00
2022-12-06T09:34:17.789Z,10.00
2022-12-06T09:36:58.113Z,10.00
2022-12-06T09:39:28.035Z,10.00
2022-12-06T09:42:00.899Z,10.00
2022-12-06T09:44:39.590Z,10.00
2022-12-06T09:47:09.150Z,10.00
2022-12-06T09:49:54.605Z,10.00
2022-12-06T09:52:38.082Z,10.00
2022-12-06T09:55:26.203Z,10.00
2022-12-06T09:58:21.654Z,10.10
2022-12-06T10:01:03.450Z,10.10
2022-12-06T10:03:58.469Z,10.10
2022-12-06T10:06:28.615Z,10.10
2022-12-06T10:09:01.784Z,10.10
2022-12-06T10:11:50.379Z,10.20
2022-12-06T10:14:42.214Z,10.20
2022-12-06T10:17:22.123Z,10.20
2022-12-06T10:20:04.727Z,10.20
2022-12-06T10:22:53.336Z,10.20
2022-12-06T10:25:34.433Z,10.10
2022-12-06T10:28:12.538Z,10.20
2022-12-06T10:30:53.556Z,10.20
2022-12-06T10:33:21.728Z,10.20
2022-12-06T10:36:00.725Z,10.20
2022-12-06T10:38:48.855Z,10.20
2022-12-06T10:41:36.551Z,10.20
2022-12-06T10:44:25.989Z,10.20
2022-12-06T10:47:17.386Z,10.20
2022-12-06T10:50:08.132Z,10.20
2022-12-06T10:53:02.032Z,10.20
2022-12-06T10:55:36.272Z,10.20
2022-12-06T10:58:27.379Z,10.20
2022-12-06T11:00:59.524Z,10.30
2022-12-06T11:03:39.484Z,10.30
2022-12-06T11:06:17.219Z,10.30
2022-12-06T11:08:52.061Z,10.20
2022-12-06T11:11:26.281Z,10.30
2022-12-06T11:13:58.760Z,10.30
2022-12-06T11:16:32.430Z,10.30
2022-12-06T11:19:29.681Z,10.30
2022-12-06T11:22:17.210Z,10.30
2022-12-06T11:25:06.836Z,10.30
2022-12-06T11:27:39.735Z,10.30
2022-12-06T11:30:19.948Z,10.30
2022-12-06T11:32:51.162Z,10.30
2022-12-06T11:35:23.197Z,10.30
2022-12-06T11:38:05.396Z,10.30
2022-12-06T11:40:36.750Z,10.40
2022-12-06T11:43:08.087Z,10.40
2022-12-06T11:45:39.737Z,10.40
2022-12-06T11:48:19.223Z,10.40
2022-12-06T11:50:49.247Z,10.40
2022-12-06T11:53:35.477Z,10.40
2022-12-06T11:56:29.088Z,10.40
2022-12-06T11:59:24.981Z,10.40
2022-12-06T12:01:54.616Z,10.40
2022-12-06T12:04:30.490Z,10.40
2022-12-06T12:07:02.346Z,10.50
2022-12-06T12:10:00.443Z,10.50
2022-12-06T12:13:06.511Z,10.40
2022-12-06T12:15:34.637Z,10.50
2022-12-06T12:18:03.376Z,10.50
2022-12-06T12:20:37.789Z,10.50
2022-12-06T12:23:19.627Z,10.50
2022-12-06T12:26:00.320Z,10.50
2022-12-06T12:28:30.453Z,10.50
2022-12-06T12:31:09.043Z,10.60
2022-12-06T12:33:36.319Z,10.50
2022-12-06T12:36:03.071Z,10.50
2022-12-06T12:38:53.755Z,10.60
2022-12-06T12:41:34.001Z,10.60
2022-12-06T12:44:36.601Z,10.60
2022-12-06T12:47:03.462Z,10.60
2022-12-06T12:49:36.355Z,10.60
2022-12-06T12:52:24.661Z,10.60
2022-12-06T12:55:22.330Z,10.60
2022-12-06T12:57:52.746Z,10.70
2022-12-06T13:00:37.137Z,10.70
2022-12-06T13:03:49.696Z,10.70
2022-12-06T13:06:11.401Z,10.70
2022-12-06T13:08:39.183Z,10.70
2022-12-06T13:11:08.401Z,10.70
2022-12-06T13:13:43.724Z,10.70
2022-12-06T13:16:18.183Z,10.70
2022-12-06T13:18:54.361Z,10.70
2022-12-06T13:21:29.508Z,10.70
2022-12-06T13:24:11.928Z,10.70
2022-12-06T13:26:46.006Z,10.70
2022-12-06T13:29:27.755Z,10.70
2022-12-06T13:31:57.968Z,10.60
2022-12-06T13:34:41.403Z,10.60
2022-12-06T13:37:34.348Z,10.60
2022-12-06T13:40:02.322Z,10.60
2022-12-06T13:42:38.539Z,10.60
2022-12-06T13:45:26.856Z,10.60
2022-12-06T13:47:53.722Z,10.60
2022-12-06T13:50:20.450Z,10.60
2022-12-06T13:52:47.182Z,10.60
2022-12-06T13:55:26.268Z,10.60
2022-12-06T13:57:56.186Z,10.60
2022-12-06T14:00:29.292Z,10.60
2022-12-06T14:02:59.460Z,10.60
2022-12-06T14:08:22.885Z,10.60
2022-12-06T14:10:49.816Z,10.70
2022-12-06T14:13:19.086Z,10.70
2022-12-06T14:15:51.308Z,10.70
2022-12-06T14:18:27.583Z,10.70
2022-12-06T14:20:57.939Z,10.70
2022-12-06T14:23:30.693Z,10.70
2022-12-06T14:26:39.035Z,10.70
2022-12-06T14:29:19.828Z,10.70
2022-12-06T14:31:50.507Z,10.70
2022-12-06T14:34:29.141Z,10.70
2022-12-06T14:36:57.538Z,10.70
2022-12-06T14:39:28.159Z,10.70
2022-12-06T14:42:20.644Z,10.70
2022-12-06T14:44:52.680Z,10.70
2022-12-06T14:47:23.195Z,10.70
2022-12-06T14:50:13.911Z,10.70
2022-12-06T14:52:59.580Z,10.70
2022-12-06T14:55:27.917Z,10.70
2022-12-06T14:58:13.240Z,10.70
2022-12-06T15:00:51.950Z,10.70
2022-12-06T15:03:18.820Z,10.70
2022-12-06T15:05:57.353Z,10.70
2022-12-06T15:08:27.040Z,10.70
2022-12-06T15:11:43.412Z,10.70
2022-12-06T15:14:15.176Z,10.60
2022-12-06T15:16:44.019Z,10.70
2022-12-06T15:19:15.549Z,10.60
2022-12-06T15:21:42.601Z,10.60
2022-12-06T15:24:18.722Z,10.60
2022-12-06T15:26:45.735Z,10.70
2022-12-06T15:29:12.663Z,10.60
2022-12-06T15:31:41.266Z,10.60
2022-12-06T15:34:37.536Z,10.60
2022-12-06T15:37:37.124Z,10.60
2022-12-06T15:39:51.287Z,10.60
2022-12-06T15:42:19.451Z,10.70
2022-12-06T15:44:49.407Z,10.70
2022-12-06T15:47:17.865Z,10.70
2022-12-06T15:49:45.455Z,10.70
2022-12-06T15:52:23.598Z,10.70
2022-12-06T15:54:50.994Z,10.70
2022-12-06T15:57:17.934Z,10.70
2022-12-06T15:59:44.798Z,10.70
2022-12-06T16:02:17.742Z,10.70
2022-12-06T16:04:45.699Z,10.70
2022-12-06T16:07:19.085Z,10.70
2022-12-06T16:09:47.279Z,10.70
2022-12-06T16:12:14.108Z,10.70
2022-12-06T16:14:40.957Z,10.70
2022-12-06T16:17:07.825Z,10.70
2022-12-06T16:19:53.576Z,10.80
2022-12-06T16:22:40.462Z,10.70
2022-12-06T16:25:07.613Z,10.70
2022-12-06T16:27:34.416Z,10.70
2022-12-06T16:30:01.201Z,10.70
2022-12-06T16:32:28.210Z,10.70
2022-12-06T16:34:54.994Z,10.70
2022-12-06T16:37:21.812Z,10.70
2022-12-06T16:39:48.617Z,10.70
2022-12-06T16:42:15.419Z,10.70
2022-12-06T16:44:51.013Z,10.60
2022-12-06T16:47:18.188Z,10.60
2022-12-06T16:49:47.021Z,10.60
2022-12-06T16:52:16.141Z,10.60
2022-12-06T16:54:43.177Z,10.60
2022-12-06T16:57:11.868Z,10.60
2022-12-06T16:59:38.762Z,10.60
2022-12-06T17:02:26.454Z,10.60
2022-12-06T17:04:54.335Z,10.60
2022-12-06T17:07:21.116Z,10.70
2022-12-06T17:09:47.885Z,10.70
2022-12-06T17:12:15.298Z,10.60
2022-12-06T17:14:42.421Z,10.60
2022-12-06T17:17:21.601Z,10.70
2022-12-06T17:19:49.507Z,10.60
2022-12-06T17:22:17.035Z,10.70
2022-12-06T17:24:44.470Z,10.70
2022-12-06T17:27:14.607Z,10.70
2022-12-06T17:29:42.489Z,10.70
2022-12-06T17:32:09.842Z,10.70
2022-12-06T17:34:36.762Z,10.70
2022-12-06T17:37:03.937Z,10.70
2022-12-06T17:39:30.878Z,10.70
2022-12-06T17:42:16.538Z,10.70
2022-12-06T17:44:43.380Z,10.70
2022-12-06T17:47:10.232Z,10.70
2022-12-06T17:49:38.444Z,10.70
2022-12-06T17:52:05.752Z,10.70
2022-12-06T17:54:32.821Z,10.80
2022-12-06T17:56:59.932Z,10.70
2022-12-06T17:59:30.238Z,10.70
2022-12-06T18:02:16.891Z,10.70
2022-12-06T18:04:45.357Z,10.70
2022-12-06T18:07:13.493Z,10.80
2022-12-06T18:09:40.715Z,10.70
2022-12-06T18:12:12.094Z,10.70
2022-12-06T18:14:39.291Z,10.70
2022-12-06T18:17:06.184Z,10.70
2022-12-06T18:19:33.571Z,10.70
2022-12-06T18:22:00.427Z,10.70
2022-12-06T18:24:32.079Z,10.70
2022-12-06T18:27:02.144Z,10.70
2022-12-06T18:29:29.059Z,10.70
2022-12-06T18:31:56.044Z,10.70
2022-12-06T18:34:23.129Z,10.70
2022-12-06T18:36:50.979Z,10.70
2022-12-06T18:39:24.404Z,10.70
2022-12-06T18:41:55.535Z,10.70
2022-12-06T18:44:22.783Z,10.70
2022-12-06T18:46:49.689Z,10.70
2022-12-06T18:49:16.567Z,10.70
2022-12-06T18:51:43.443Z,10.70
2022-12-06T18:54:11.435Z,10.70
2022-12-06T18:56:39.361Z,10.70
2022-12-06T18:59:07.530Z,10.70
2022-12-06T19:01:37.489Z,10.70
2022-12-06T19:04:06.220Z,10.70
2022-12-06T19:06:38.064Z,10.70
2022-12-06T19:09:07.746Z,10.70
2022-12-06T19:11:39.533Z,10.70
2022-12-06T19:14:07.325Z,10.70
2022-12-06T19:16:39.730Z,10.80
2022-12-06T19:19:15.547Z,10.80
2022-12-06T19:21:44.588Z,10.70
2022-12-06T19:24:13.780Z,10.70
2022-12-06T19:26:40.644Z,10.70
2022-12-06T19:29:07.928Z,10.70
2022-12-06T19:31:35.424Z,10.70
2022-12-06T19:34:02.285Z,10.70
2022-12-06T19:36:31.018Z,10.70
2022-12-06T19:39:03.455Z,10.70
2022-12-06T19:41:30.697Z,10.70
2022-12-06T19:44:17.001Z,10.70
2022-12-06T19:46:45.869Z,10.70
2022-12-06T19:49:14.229Z,10.70
2022-12-06T19:51:46.414Z,10.60
2022-12-06T19:54:25.402Z,10.70
2022-12-06T19:56:54.180Z,10.60
2022-12-06T19:59:22.329Z,10.60
2022-12-06T20:01:50.223Z,10.60
2022-12-06T20:04:25.591Z,10.60
2022-12-06T20:06:53.473Z,10.60
2022-12-06T20:09:22.693Z,10.60
2022-12-06T20:12:10.452Z,10.60
2022-12-06T20:14:43.587Z,10.60
2022-12-06T20:17:16.250Z,10.60
2022-12-06T20:19:45.947Z,10.60
2022-12-06T20:22:14.574Z,10.60
2022-12-06T20:24:41.592Z,10.60
2022-12-06T20:27:09.044Z,10.60
2022-12-06T20:29:35.965Z,10.60
2022-12-06T20:32:04.172Z,10.60
2022-12-06T20:34:34.347Z,10.60
2022-12-06T20:37:03.937Z,10.60
2022-12-06T20:39:33.079Z,10.60
2022-12-06T20:42:00.997Z,10.60
2022-12-06T20:44:27.932Z,10.60
2022-12-06T20:46:54.831Z,10.60
2022-12-06T20:49:21.685Z,10.60
2022-12-06T20:51:52.865Z,10.60
2022-12-06T20:54:21.898Z,10.60
2022-12-06T20:56:51.720Z,10.60
2022-12-06T20:59:19.293Z,10.60
2022-12-06T21:01:46.483Z,10.60
2022-12-06T21:04:14.399Z,10.60
2022-12-06T21:06:41.783Z,10.50
2022-12-06T21:09:09.006Z,10.60
2022-12-06T21:11:36.431Z,10.50
2022-12-06T21:14:04.381Z,10.50
2022-12-06T21:16:33.510Z,10.60
2022-12-06T21:19:03.234Z,10.50
2022-12-06T21:21:34.288Z,10.50
2022-12-06T21:24:10.906Z,10.50
2022-12-06T21:26:37.707Z,10.50
2022-12-06T21:29:05.466Z,10.50
2022-12-06T21:31:37.970Z,10.50
2022-12-06T21:34:05.572Z,10.50
2022-12-06T21:36:33.192Z,10.50
2022-12-06T21:39:00.398Z,10.50
2022-12-06T21:41:27.538Z,10.50
2022-12-06T21:43:54.480Z,10.50
2022-12-06T21:46:23.588Z,10.50
2022-12-06T21:48:55.624Z,10.40
2022-12-06T21:51:24.477Z,10.40
2022-12-06T21:53:51.617Z,10.40
2022-12-06T21:56:21.041Z,10.40
2022-12-06T21:58:48.787Z,10.40
2022-12-06T22:01:21.561Z,10.40
2022-12-06T22:03:50.040Z,10.40
2022-12-06T22:06:17.866Z,10.40
2022-12-06T22:08:46.477Z,10.40
2022-12-06T22:11:16.803Z,10.40
2022-12-06T22:13:43.897Z,10.40
2022-12-06T22:16:12.267Z,10.40
2022-12-06T22:18:44.927Z,10.40
2022-12-06T22:21:21.060Z,10.40
2022-12-06T22:23:48.623Z,10.40
2022-12-06T22:26:21.432Z,10.40
2022-12-06T22:28:49.053Z,10.40
2022-12-06T22:31:25.091Z,10.40
2022-12-06T22:33:52.853Z,10.40
2022-12-06T22:36:21.273Z,10.40
2022-12-06T22:38:49.994Z,10.40
2022-12-06T22:41:17.452Z,10.40
2022-12-06T22:43:44.662Z,10.40
2022-12-06T22:46:15.062Z,10.30
2022-12-06T22:48:43.377Z,10.30
2022-12-06T22:51:23.587Z,10.30
2022-12-06T22:54:09.810Z,10.30
2022-12-06T22:56:36.944Z,10.30
2022-12-06T22:59:03.971Z,10.30
2022-12-06T23:01:33.100Z,10.20
2022-12-06T23:04:02.620Z,10.20
2022-12-06T23:06:30.222Z,10.20
2022-12-06T23:08:57.110Z,10.20
2022-12-06T23:11:29.892Z,10.10
2022-12-06T23:13:57.686Z,10.10
2022-12-06T23:16:27.217Z,10.10
2022-12-06T23:18:54.850Z,10.10
2022-12-06T23:21:24.936Z,10.10
2022-12-06T23:23:54.110Z,10.10
2022-12-06T23:26:23.950Z,10.10
2022-12-06T23:28:51.468Z,10.10
2022-12-06T23:31:27.115Z,10.10
2022-12-06T23:33:56.823Z,10.10
2022-12-06T23:36:26.456Z,10.10
2022-12-06T23:38:53.399Z,10.10
2022-12-06T23:41:25.519Z,10.10
2022-12-06T23:43:53.693Z,10.10
2022-12-06T23:46:23.492Z,10.20
2022-12-06T23:48:51.288Z,10.20
2022-12-06T23:51:20.597Z,10.20
2022-12-06T23:53:57.368Z,10.20
2022-12-06T23:56:26.043Z,10.20
2022-12-06T23:58:53.321Z,10.10
